Portada
METAR-TAF:

METAR-TAF

Aeropuertos :

Aeropuerto de Svalbard

Longyearbyen, Noruega

latitud: 78-15N, longitud: 015-28E, altitud: 2 m

Observación

El informe se hizo hace 28 minutos, a las 18:50 UTC
Viento 13 kt del este-sureste
Temperatura -15°C
Humedad 78%
Presión 1001 hPa
Visibilidad 10 km o más
Escasas nubes a una altura de 2200 ft

METAR: ENSB 161850Z 12013KT 9999 FEW022 M15/M18 Q1001 RMK WIND 1400FT 09006KT

Hora: 20:18 (19:18 UTC)

Pronóstico

Pronóstico válido del 16 a las 18 UTC al 17 a las 18 UTC
Viento 8 kt del este-sureste
Visibilidad 10 km o más
Escasas nubes a una altura de 2500 ft
Nubes dispersas a una altura de 4000 ft
Temporalmente
del 16 a las 18 UTC al 17 a las 09 UTC
Visibilidad: 2000 m
a una altura de 800 ft
chaparrones de nieve
Temporalmente
del 17 a las 12 UTC al 17 a las 18 UTC
Viento 18 kt del este-sureste

TAF: ENSB 1618/1718 11008KT 9999 FEW025 SCT040 TEMPO 1618/1709 2000 SHSN VV008 TEMPO 1712/1718 11018KT

Observaciones y pronósticos meteorológicos de más de 4000 aeropuertos (mensajes METAR y TAF).

Los puntos amarillos y rojos representan las estaciones disponibles.

Ponga el ratón en el punto deseado para ver el nombre de la estación.

Haga clic para ver las observaciones y los pronósticos meteorológicos.

Para cambiar el mapa : haga clic en los botones verdes con una cruz de color negro para hacer un zoom, en el botón verde con un guión para alejar o en las flechas verdes para mapas adyacentes.


METAR-TAF: